Courtois, Missouri
Current Conditions -  °F | °C
As of 4:53 AM on Monday 20 Oct 2014 (Local Time) from KVIH Reporting Station
Clear Clear  
Wind Chill: 50°   Ceiling: Unl
Heat Index: 50°   Visibility: 10mi
Dew Point: 45°   Wind: 9mph
Humidity: 83%   Direction: 220°SW
Pressure: 29.99"   Gusts: NA
Location:  37.9523°N, 91.288°W
Report Text: KVIH 200953Z AUTO 22008KT 10SM CLR 10/07 A2999 RMK AO2 SLP153 T01000072
Loading
Personal Weather Stations






























Interactive Weather Map
Tropical Storm Tracking
New forecast layout! Learn more

10-Day Weather Forecast

Advertisements
Track Severe Weather on mobile